sensor_id;sensor_type;location;lat;lon;timestamp;P1;durP1;ratioP1;P2;durP2;ratioP2
22963;SDS011;11648;49.306;6.934;2023-04-03T00:00:50;3.27;;;2.20;;
22963;SDS011;11648;49.306;6.934;2023-04-03T00:03:17;3.57;;;2.00;;
22963;SDS011;11648;49.306;6.934;2023-04-03T00:05:45;3.40;;;1.70;;
22963;SDS011;11648;49.306;6.934;2023-04-03T00:08:12;3.13;;;1.90;;
22963;SDS011;11648;49.306;6.934;2023-04-03T00:10:39;4.07;;;1.93;;
22963;SDS011;11648;49.306;6.934;2023-04-03T00:13:06;3.77;;;1.70;;
22963;SDS011;11648;49.306;6.934;2023-04-03T00:15:34;3.77;;;2.00;;
22963;SDS011;11648;49.306;6.934;2023-04-03T00:18:02;3.73;;;1.87;;
22963;SDS011;11648;49.306;6.934;2023-04-03T00:20:29;2.77;;;2.00;;
22963;SDS011;11648;49.306;6.934;2023-04-03T00:22:56;4.23;;;2.17;;
22963;SDS011;11648;49.306;6.934;2023-04-03T00:25:23;2.47;;;1.60;;
22963;SDS011;11648;49.306;6.934;2023-04-03T00:27:50;3.10;;;1.83;;
22963;SDS011;11648;49.306;6.934;2023-04-03T00:30:17;3.10;;;1.90;;
22963;SDS011;11648;49.306;6.934;2023-04-03T00:32:50;5.13;;;2.00;;
22963;SDS011;11648;49.306;6.934;2023-04-03T00:35:18;3.63;;;2.07;;
22963;SDS011;11648;49.306;6.934;2023-04-03T00:37:47;3.60;;;1.93;;
22963;SDS011;11648;49.306;6.934;2023-04-03T00:40:14;4.33;;;2.00;;
22963;SDS011;11648;49.306;6.934;2023-04-03T00:42:43;4.03;;;1.93;;
22963;SDS011;11648;49.306;6.934;2023-04-03T00:47:44;3.70;;;2.10;;
22963;SDS011;11648;49.306;6.934;2023-04-03T00:50:11;3.03;;;2.10;;
22963;SDS011;11648;49.306;6.934;2023-04-03T00:52:38;3.83;;;2.10;;
22963;SDS011;11648;49.306;6.934;2023-04-03T00:55:07;3.67;;;2.00;;
22963;SDS011;11648;49.306;6.934;2023-04-03T00:57:35;3.20;;;1.90;;
22963;SDS011;11648;49.306;6.934;2023-04-03T01:00:04;4.00;;;2.30;;
22963;SDS011;11648;49.306;6.934;2023-04-03T01:02:38;3.47;;;2.20;;
22963;SDS011;11648;49.306;6.934;2023-04-03T01:05:08;3.37;;;2.07;;
22963;SDS011;11648;49.306;6.934;2023-04-03T01:07:36;3.00;;;2.00;;
22963;SDS011;11648;49.306;6.934;2023-04-03T01:10:05;3.90;;;2.00;;
22963;SDS011;11648;49.306;6.934;2023-04-03T01:12:36;2.90;;;1.90;;
22963;SDS011;11648;49.306;6.934;2023-04-03T01:15:09;4.40;;;2.17;;
22963;SDS011;11648;49.306;6.934;2023-04-03T01:28:05;3.10;;;2.10;;
22963;SDS011;11648;49.306;6.934;2023-04-03T01:30:35;5.50;;;2.23;;
22963;SDS011;11648;49.306;6.934;2023-04-03T01:33:09;3.17;;;2.13;;
22963;SDS011;11648;49.306;6.934;2023-04-03T01:35:37;5.20;;;2.40;;
22963;SDS011;11648;49.306;6.934;2023-04-03T01:38:04;4.63;;;1.97;;
22963;SDS011;11648;49.306;6.934;2023-04-03T01:40:31;3.80;;;2.00;;
22963;SDS011;11648;49.306;6.934;2023-04-03T01:42:58;3.63;;;1.73;;
22963;SDS011;11648;49.306;6.934;2023-04-03T01:45:24;3.03;;;1.90;;
22963;SDS011;11648;49.306;6.934;2023-04-03T01:47:51;4.00;;;2.10;;
22963;SDS011;11648;49.306;6.934;2023-04-03T01:50:18;3.87;;;2.20;;
22963;SDS011;11648;49.306;6.934;2023-04-03T01:52:45;3.67;;;2.03;;
22963;SDS011;11648;49.306;6.934;2023-04-03T01:55:12;5.20;;;2.00;;
22963;SDS011;11648;49.306;6.934;2023-04-03T01:57:38;3.67;;;2.00;;
22963;SDS011;11648;49.306;6.934;2023-04-03T02:00:05;3.33;;;2.10;;
22963;SDS011;11648;49.306;6.934;2023-04-03T02:02:38;3.03;;;2.10;;
22963;SDS011;11648;49.306;6.934;2023-04-03T02:05:05;3.43;;;2.17;;
22963;SDS011;11648;49.306;6.934;2023-04-03T02:07:32;3.73;;;1.70;;
22963;SDS011;11648;49.306;6.934;2023-04-03T02:09:59;4.67;;;2.00;;
22963;SDS011;11648;49.306;6.934;2023-04-03T02:12:26;3.20;;;1.97;;
22963;SDS011;11648;49.306;6.934;2023-04-03T02:14:53;3.80;;;1.87;;
22963;SDS011;11648;49.306;6.934;2023-04-03T02:17:20;3.67;;;2.00;;
22963;SDS011;11648;49.306;6.934;2023-04-03T02:19:46;2.67;;;1.80;;
22963;SDS011;11648;49.306;6.934;2023-04-03T02:22:13;3.47;;;1.80;;
22963;SDS011;11648;49.306;6.934;2023-04-03T02:24:40;4.17;;;2.10;;
22963;SDS011;11648;49.306;6.934;2023-04-03T02:27:07;2.87;;;1.73;;
22963;SDS011;11648;49.306;6.934;2023-04-03T02:29:37;3.80;;;2.00;;
22963;SDS011;11648;49.306;6.934;2023-04-03T02:32:04;7.00;;;2.07;;
22963;SDS011;11648;49.306;6.934;2023-04-03T02:34:34;3.17;;;2.03;;
22963;SDS011;11648;49.306;6.934;2023-04-03T02:37:01;3.87;;;1.93;;
22963;SDS011;11648;49.306;6.934;2023-04-03T02:39:28;5.00;;;2.57;;
22963;SDS011;11648;49.306;6.934;2023-04-03T02:41:59;5.60;;;2.10;;
22963;SDS011;11648;49.306;6.934;2023-04-03T02:44:27;3.47;;;2.10;;
22963;SDS011;11648;49.306;6.934;2023-04-03T02:46:53;4.53;;;2.03;;
22963;SDS011;11648;49.306;6.934;2023-04-03T02:49:20;3.57;;;2.20;;
22963;SDS011;11648;49.306;6.934;2023-04-03T02:51:47;3.30;;;2.00;;
22963;SDS011;11648;49.306;6.934;2023-04-03T02:54:14;5.13;;;2.13;;
22963;SDS011;11648;49.306;6.934;2023-04-03T02:56:45;3.40;;;1.80;;
22963;SDS011;11648;49.306;6.934;2023-04-03T02:59:12;4.87;;;2.30;;
22963;SDS011;11648;49.306;6.934;2023-04-03T03:01:39;4.67;;;1.80;;
22963;SDS011;11648;49.306;6.934;2023-04-03T03:04:06;3.20;;;2.00;;
22963;SDS011;11648;49.306;6.934;2023-04-03T03:06:33;4.23;;;2.20;;
22963;SDS011;11648;49.306;6.934;2023-04-03T03:09:00;5.93;;;2.20;;
22963;SDS011;11648;49.306;6.934;2023-04-03T03:11:27;3.23;;;1.90;;
22963;SDS011;11648;49.306;6.934;2023-04-03T03:13:54;4.03;;;2.10;;
22963;SDS011;11648;49.306;6.934;2023-04-03T03:16:21;3.37;;;2.00;;
22963;SDS011;11648;49.306;6.934;2023-04-03T03:18:48;5.30;;;2.20;;
22963;SDS011;11648;49.306;6.934;2023-04-03T03:21:15;3.00;;;2.17;;
22963;SDS011;11648;49.306;6.934;2023-04-03T03:23:42;4.47;;;1.97;;
22963;SDS011;11648;49.306;6.934;2023-04-03T03:26:09;4.97;;;2.10;;
22963;SDS011;11648;49.306;6.934;2023-04-03T03:28:37;4.23;;;2.10;;
22963;SDS011;11648;49.306;6.934;2023-04-03T03:31:05;4.63;;;2.70;;
22963;SDS011;11648;49.306;6.934;2023-04-03T03:33:33;5.83;;;3.60;;
22963;SDS011;11648;49.306;6.934;2023-04-03T03:36:00;11.20;;;5.67;;
22963;SDS011;11648;49.306;6.934;2023-04-03T03:38:28;10.90;;;5.87;;
22963;SDS011;11648;49.306;6.934;2023-04-03T03:40:55;7.57;;;5.00;;
22963;SDS011;11648;49.306;6.934;2023-04-03T03:43:23;7.37;;;3.57;;
22963;SDS011;11648;49.306;6.934;2023-04-03T03:45:52;6.40;;;3.73;;
22963;SDS011;11648;49.306;6.934;2023-04-03T03:48:21;4.70;;;2.97;;
22963;SDS011;11648;49.306;6.934;2023-04-03T03:50:49;5.03;;;2.30;;
22963;SDS011;11648;49.306;6.934;2023-04-03T03:53:18;4.97;;;2.30;;
22963;SDS011;11648;49.306;6.934;2023-04-03T03:55:47;4.87;;;2.60;;
22963;SDS011;11648;49.306;6.934;2023-04-03T03:58:14;4.40;;;2.43;;
22963;SDS011;11648;49.306;6.934;2023-04-03T04:00:41;3.93;;;2.47;;
22963;SDS011;11648;49.306;6.934;2023-04-03T04:03:08;5.37;;;2.53;;
22963;SDS011;11648;49.306;6.934;2023-04-03T04:05:35;4.90;;;2.70;;
22963;SDS011;11648;49.306;6.934;2023-04-03T04:08:02;5.63;;;2.40;;
22963;SDS011;11648;49.306;6.934;2023-04-03T04:10:29;4.47;;;2.60;;
22963;SDS011;11648;49.306;6.934;2023-04-03T04:12:57;4.97;;;3.27;;
22963;SDS011;11648;49.306;6.934;2023-04-03T04:15:26;5.60;;;2.93;;
22963;SDS011;11648;49.306;6.934;2023-04-03T04:17:57;5.30;;;3.30;;
22963;SDS011;11648;49.306;6.934;2023-04-03T04:20:24;6.40;;;2.63;;
22963;SDS011;11648;49.306;6.934;2023-04-03T04:22:52;4.50;;;2.73;;
22963;SDS011;11648;49.306;6.934;2023-04-03T04:25:20;6.13;;;2.43;;
22963;SDS011;11648;49.306;6.934;2023-04-03T04:27:46;5.77;;;2.60;;
22963;SDS011;11648;49.306;6.934;2023-04-03T04:30:14;4.90;;;2.60;;
22963;SDS011;11648;49.306;6.934;2023-04-03T04:32:43;5.97;;;2.53;;
22963;SDS011;11648;49.306;6.934;2023-04-03T04:35:10;4.00;;;2.37;;
22963;SDS011;11648;49.306;6.934;2023-04-03T04:37:42;3.60;;;2.40;;
22963;SDS011;11648;49.306;6.934;2023-04-03T04:40:09;6.63;;;2.50;;
22963;SDS011;11648;49.306;6.934;2023-04-03T04:42:36;4.33;;;2.50;;
22963;SDS011;11648;49.306;6.934;2023-04-03T04:45:05;4.37;;;2.77;;
22963;SDS011;11648;49.306;6.934;2023-04-03T04:47:32;4.17;;;2.63;;
22963;SDS011;11648;49.306;6.934;2023-04-03T04:49:58;3.50;;;2.17;;
22963;SDS011;11648;49.306;6.934;2023-04-03T04:52:26;3.73;;;2.00;;
22963;SDS011;11648;49.306;6.934;2023-04-03T04:54:52;4.07;;;2.30;;
22963;SDS011;11648;49.306;6.934;2023-04-03T04:57:19;3.27;;;1.90;;
22963;SDS011;11648;49.306;6.934;2023-04-03T04:59:46;3.10;;;1.70;;
22963;SDS011;11648;49.306;6.934;2023-04-03T05:02:13;3.60;;;1.60;;
22963;SDS011;11648;49.306;6.934;2023-04-03T05:04:41;3.10;;;1.50;;
22963;SDS011;11648;49.306;6.934;2023-04-03T05:07:14;3.63;;;1.60;;
22963;SDS011;11648;49.306;6.934;2023-04-03T05:09:41;3.60;;;1.63;;
22963;SDS011;11648;49.306;6.934;2023-04-03T05:12:10;2.37;;;1.30;;
22963;SDS011;11648;49.306;6.934;2023-04-03T05:14:43;2.37;;;1.40;;
22963;SDS011;11648;49.306;6.934;2023-04-03T05:17:10;2.87;;;1.60;;
22963;SDS011;11648;49.306;6.934;2023-04-03T05:19:40;2.60;;;1.40;;
22963;SDS011;11648;49.306;6.934;2023-04-03T05:22:08;2.30;;;1.40;;
22963;SDS011;11648;49.306;6.934;2023-04-03T05:24:35;3.33;;;1.57;;
22963;SDS011;11648;49.306;6.934;2023-04-03T05:27:03;2.57;;;1.33;;
22963;SDS011;11648;49.306;6.934;2023-04-03T05:29:32;3.20;;;1.40;;
22963;SDS011;11648;49.306;6.934;2023-04-03T05:32:00;3.00;;;1.50;;
22963;SDS011;11648;49.306;6.934;2023-04-03T05:34:27;3.13;;;1.50;;
22963;SDS011;11648;49.306;6.934;2023-04-03T05:36:55;2.97;;;1.70;;
22963;SDS011;11648;49.306;6.934;2023-04-03T05:39:22;3.60;;;1.50;;
22963;SDS011;11648;49.306;6.934;2023-04-03T05:41:50;2.33;;;1.30;;
22963;SDS011;11648;49.306;6.934;2023-04-03T05:44:17;3.07;;;1.20;;
22963;SDS011;11648;49.306;6.934;2023-04-03T05:46:45;4.80;;;1.23;;
22963;SDS011;11648;49.306;6.934;2023-04-03T05:49:12;2.33;;;1.20;;
22963;SDS011;11648;49.306;6.934;2023-04-03T05:51:39;2.73;;;1.20;;
22963;SDS011;11648;49.306;6.934;2023-04-03T05:54:19;2.43;;;1.33;;
22963;SDS011;11648;49.306;6.934;2023-04-03T05:56:52;3.10;;;1.27;;
22963;SDS011;11648;49.306;6.934;2023-04-03T05:59:20;2.53;;;1.17;;
22963;SDS011;11648;49.306;6.934;2023-04-03T06:01:50;3.87;;;1.23;;
22963;SDS011;11648;49.306;6.934;2023-04-03T06:04:17;2.73;;;1.10;;
22963;SDS011;11648;49.306;6.934;2023-04-03T06:06:49;3.10;;;1.33;;
22963;SDS011;11648;49.306;6.934;2023-04-03T06:09:18;2.53;;;1.10;;
22963;SDS011;11648;49.306;6.934;2023-04-03T06:11:49;3.13;;;1.03;;
22963;SDS011;11648;49.306;6.934;2023-04-03T06:14:16;2.73;;;1.30;;
22963;SDS011;11648;49.306;6.934;2023-04-03T06:16:43;2.70;;;1.10;;
22963;SDS011;11648;49.306;6.934;2023-04-03T06:19:11;1.87;;;1.13;;
22963;SDS011;11648;49.306;6.934;2023-04-03T06:21:43;2.40;;;1.27;;
22963;SDS011;11648;49.306;6.934;2023-04-03T06:24:12;3.10;;;1.20;;
22963;SDS011;11648;49.306;6.934;2023-04-03T06:26:41;2.73;;;1.13;;
22963;SDS011;11648;49.306;6.934;2023-04-03T06:29:07;2.33;;;1.00;;
22963;SDS011;11648;49.306;6.934;2023-04-03T06:31:35;3.13;;;1.37;;
22963;SDS011;11648;49.306;6.934;2023-04-03T06:34:03;3.37;;;1.20;;
22963;SDS011;11648;49.306;6.934;2023-04-03T06:36:31;2.70;;;1.13;;
22963;SDS011;11648;49.306;6.934;2023-04-03T06:38:58;3.57;;;1.10;;
22963;SDS011;11648;49.306;6.934;2023-04-03T06:41:25;2.33;;;1.10;;
22963;SDS011;11648;49.306;6.934;2023-04-03T06:43:52;2.53;;;1.10;;
22963;SDS011;11648;49.306;6.934;2023-04-03T06:46:20;3.17;;;1.30;;
22963;SDS011;11648;49.306;6.934;2023-04-03T06:48:48;3.73;;;1.00;;
22963;SDS011;11648;49.306;6.934;2023-04-03T06:51:22;2.23;;;1.10;;
22963;SDS011;11648;49.306;6.934;2023-04-03T06:53:54;2.33;;;1.10;;
22963;SDS011;11648;49.306;6.934;2023-04-03T06:56:22;2.67;;;1.10;;
22963;SDS011;11648;49.306;6.934;2023-04-03T06:58:49;2.87;;;1.10;;
22963;SDS011;11648;49.306;6.934;2023-04-03T07:01:17;2.40;;;1.03;;
22963;SDS011;11648;49.306;6.934;2023-04-03T07:03:48;3.13;;;1.20;;
22963;SDS011;11648;49.306;6.934;2023-04-03T07:06:15;2.07;;;1.07;;
22963;SDS011;11648;49.306;6.934;2023-04-03T07:08:43;2.63;;;1.07;;
22963;SDS011;11648;49.306;6.934;2023-04-03T07:11:12;2.67;;;1.03;;
22963;SDS011;11648;49.306;6.934;2023-04-03T07:13:39;2.23;;;1.00;;
22963;SDS011;11648;49.306;6.934;2023-04-03T07:16:06;1.73;;;1.00;;
22963;SDS011;11648;49.306;6.934;2023-04-03T07:18:35;3.30;;;1.20;;
22963;SDS011;11648;49.306;6.934;2023-04-03T07:21:02;2.30;;;1.00;;
22963;SDS011;11648;49.306;6.934;2023-04-03T07:23:29;2.40;;;1.10;;
22963;SDS011;11648;49.306;6.934;2023-04-03T07:25:56;2.00;;;1.03;;
22963;SDS011;11648;49.306;6.934;2023-04-03T07:28:23;1.90;;;1.00;;
22963;SDS011;11648;49.306;6.934;2023-04-03T07:30:51;2.93;;;1.30;;
22963;SDS011;11648;49.306;6.934;2023-04-03T07:33:22;2.17;;;1.13;;
22963;SDS011;11648;49.306;6.934;2023-04-03T07:35:50;2.17;;;0.90;;
22963;SDS011;11648;49.306;6.934;2023-04-03T07:38:17;2.70;;;1.00;;
22963;SDS011;11648;49.306;6.934;2023-04-03T07:40:48;3.07;;;1.10;;
22963;SDS011;11648;49.306;6.934;2023-04-03T07:43:17;2.13;;;1.00;;
22963;SDS011;11648;49.306;6.934;2023-04-03T07:45:44;3.30;;;1.30;;
22963;SDS011;11648;49.306;6.934;2023-04-03T07:48:11;3.13;;;1.20;;
22963;SDS011;11648;49.306;6.934;2023-04-03T07:50:41;3.40;;;1.20;;
22963;SDS011;11648;49.306;6.934;2023-04-03T07:53:09;3.73;;;1.90;;
22963;SDS011;11648;49.306;6.934;2023-04-03T07:55:36;3.00;;;1.50;;
22963;SDS011;11648;49.306;6.934;2023-04-03T07:58:13;2.53;;;1.37;;
22963;SDS011;11648;49.306;6.934;2023-04-03T08:00:43;3.60;;;1.23;;
22963;SDS011;11648;49.306;6.934;2023-04-03T08:03:11;2.50;;;1.20;;
22963;SDS011;11648;49.306;6.934;2023-04-03T08:05:39;3.13;;;1.23;;
22963;SDS011;11648;49.306;6.934;2023-04-03T08:08:07;3.93;;;1.27;;
22963;SDS011;11648;49.306;6.934;2023-04-03T08:10:36;3.63;;;1.40;;
22963;SDS011;11648;49.306;6.934;2023-04-03T08:13:03;3.20;;;1.30;;
22963;SDS011;11648;49.306;6.934;2023-04-03T08:15:31;3.17;;;1.40;;
22963;SDS011;11648;49.306;6.934;2023-04-03T08:17:59;3.47;;;1.30;;
22963;SDS011;11648;49.306;6.934;2023-04-03T08:20:27;4.60;;;1.30;;
22963;SDS011;11648;49.306;6.934;2023-04-03T08:22:54;4.93;;;1.40;;
22963;SDS011;11648;49.306;6.934;2023-04-03T08:25:21;2.30;;;1.03;;
22963;SDS011;11648;49.306;6.934;2023-04-03T08:27:48;4.13;;;1.60;;
22963;SDS011;11648;49.306;6.934;2023-04-03T08:30:14;4.83;;;1.60;;
22963;SDS011;11648;49.306;6.934;2023-04-03T08:32:41;2.60;;;1.20;;
22963;SDS011;11648;49.306;6.934;2023-04-03T08:35:09;3.60;;;1.20;;
22963;SDS011;11648;49.306;6.934;2023-04-03T08:37:37;3.80;;;1.30;;
22963;SDS011;11648;49.306;6.934;2023-04-03T08:40:06;4.63;;;1.50;;
22963;SDS011;11648;49.306;6.934;2023-04-03T08:50:35;4.63;;;1.57;;
22963;SDS011;11648;49.306;6.934;2023-04-03T08:53:06;3.63;;;1.33;;
22963;SDS011;11648;49.306;6.934;2023-04-03T08:55:45;2.57;;;1.13;;
22963;SDS011;11648;49.306;6.934;2023-04-03T08:58:21;3.63;;;1.00;;
22963;SDS011;11648;49.306;6.934;2023-04-03T09:03:19;2.27;;;1.00;;
22963;SDS011;11648;49.306;6.934;2023-04-03T09:05:55;4.37;;;1.23;;
22963;SDS011;11648;49.306;6.934;2023-04-03T09:08:30;4.10;;;1.40;;
22963;SDS011;11648;49.306;6.934;2023-04-03T09:16:37;4.10;;;1.33;;
22963;SDS011;11648;49.306;6.934;2023-04-03T09:21:48;3.23;;;1.20;;
22963;SDS011;11648;49.306;6.934;2023-04-03T09:24:15;3.20;;;1.40;;
22963;SDS011;11648;49.306;6.934;2023-04-03T09:29:28;3.10;;;1.10;;
22963;SDS011;11648;49.306;6.934;2023-04-03T09:31:56;2.93;;;1.10;;
22963;SDS011;11648;49.306;6.934;2023-04-03T09:34:28;2.83;;;1.07;;
22963;SDS011;11648;49.306;6.934;2023-04-03T09:36:59;3.83;;;1.33;;
22963;SDS011;11648;49.306;6.934;2023-04-03T09:39:33;3.00;;;1.17;;
22963;SDS011;11648;49.306;6.934;2023-04-03T09:42:23;4.27;;;1.20;;
22963;SDS011;11648;49.306;6.934;2023-04-03T09:45:18;4.03;;;1.27;;
22963;SDS011;11648;49.306;6.934;2023-04-03T09:47:49;3.93;;;1.33;;
22963;SDS011;11648;49.306;6.934;2023-04-03T09:50:32;3.13;;;1.17;;
22963;SDS011;11648;49.306;6.934;2023-04-03T09:53:01;3.47;;;1.37;;
22963;SDS011;11648;49.306;6.934;2023-04-03T09:55:32;4.63;;;1.43;;
22963;SDS011;11648;49.306;6.934;2023-04-03T09:58:03;3.13;;;1.10;;
22963;SDS011;11648;49.306;6.934;2023-04-03T10:00:33;3.73;;;1.00;;
22963;SDS011;11648;49.306;6.934;2023-04-03T10:03:03;3.17;;;1.20;;
22963;SDS011;11648;49.306;6.934;2023-04-03T10:05:35;3.17;;;1.00;;
22963;SDS011;11648;49.306;6.934;2023-04-03T10:10:45;4.27;;;1.40;;
22963;SDS011;11648;49.306;6.934;2023-04-03T10:13:16;5.60;;;1.37;;
22963;SDS011;11648;49.306;6.934;2023-04-03T10:21:06;3.07;;;1.20;;
22963;SDS011;11648;49.306;6.934;2023-04-03T10:24:00;2.60;;;1.00;;
22963;SDS011;11648;49.306;6.934;2023-04-03T10:26:41;2.87;;;1.17;;
22963;SDS011;11648;49.306;6.934;2023-04-03T10:29:26;3.60;;;1.20;;
22963;SDS011;11648;49.306;6.934;2023-04-03T10:32:18;3.80;;;1.50;;
22963;SDS011;11648;49.306;6.934;2023-04-03T10:37:54;3.63;;;1.50;;
22963;SDS011;11648;49.306;6.934;2023-04-03T10:40:33;3.37;;;1.43;;
22963;SDS011;11648;49.306;6.934;2023-04-03T10:46:09;2.37;;;1.10;;
22963;SDS011;11648;49.306;6.934;2023-04-03T10:48:45;4.30;;;1.53;;
22963;SDS011;11648;49.306;6.934;2023-04-03T10:56:56;3.33;;;1.33;;
22963;SDS011;11648;49.306;6.934;2023-04-03T10:59:42;3.57;;;1.40;;
22963;SDS011;11648;49.306;6.934;2023-04-03T11:05:17;4.30;;;1.43;;
22963;SDS011;11648;49.306;6.934;2023-04-03T11:07:52;2.93;;;1.10;;
22963;SDS011;11648;49.306;6.934;2023-04-03T11:10:37;4.83;;;1.50;;
22963;SDS011;11648;49.306;6.934;2023-04-03T11:13:12;3.73;;;1.37;;
22963;SDS011;11648;49.306;6.934;2023-04-03T11:15:53;3.40;;;1.50;;
22963;SDS011;11648;49.306;6.934;2023-04-03T11:18:22;2.83;;;1.23;;
22963;SDS011;11648;49.306;6.934;2023-04-03T11:20:57;3.58;;;1.42;;
22963;SDS011;11648;49.306;6.934;2023-04-03T11:23:31;3.08;;;1.33;;
22963;SDS011;11648;49.306;6.934;2023-04-03T11:26:18;3.37;;;1.20;;
22963;SDS011;11648;49.306;6.934;2023-04-03T11:29:05;3.47;;;1.30;;
22963;SDS011;11648;49.306;6.934;2023-04-03T11:34:24;3.37;;;1.30;;
22963;SDS011;11648;49.306;6.934;2023-04-03T11:37:00;3.83;;;1.20;;
22963;SDS011;11648;49.306;6.934;2023-04-03T11:44:48;4.07;;;1.23;;
22963;SDS011;11648;49.306;6.934;2023-04-03T11:47:44;3.23;;;1.20;;
22963;SDS011;11648;49.306;6.934;2023-04-03T12:16:24;4.17;;;1.40;;
22963;SDS011;11648;49.306;6.934;2023-04-03T12:18:57;4.87;;;1.30;;
22963;SDS011;11648;49.306;6.934;2023-04-03T12:26:39;3.07;;;1.40;;
22963;SDS011;11648;49.306;6.934;2023-04-03T12:29:33;4.17;;;1.20;;
22963;SDS011;11648;49.306;6.934;2023-04-03T12:38:33;4.80;;;1.30;;
22963;SDS011;11648;49.306;6.934;2023-04-03T12:46:54;4.13;;;1.30;;
22963;SDS011;11648;49.306;6.934;2023-04-03T12:52:06;2.63;;;1.00;;
22963;SDS011;11648;49.306;6.934;2023-04-03T12:54:45;4.10;;;1.20;;
22963;SDS011;11648;49.306;6.934;2023-04-03T12:57:24;3.10;;;1.10;;
22963;SDS011;11648;49.306;6.934;2023-04-03T12:59:53;2.90;;;1.20;;
22963;SDS011;11648;49.306;6.934;2023-04-03T13:04:53;4.17;;;1.20;;
22963;SDS011;11648;49.306;6.934;2023-04-03T13:07:28;3.23;;;1.00;;
22963;SDS011;11648;49.306;6.934;2023-04-03T13:15:21;3.47;;;1.13;;
22963;SDS011;11648;49.306;6.934;2023-04-03T13:17:52;4.37;;;1.20;;
22963;SDS011;11648;49.306;6.934;2023-04-03T13:22:50;3.83;;;1.10;;
22963;SDS011;11648;49.306;6.934;2023-04-03T13:25:18;5.60;;;1.10;;
22963;SDS011;11648;49.306;6.934;2023-04-03T13:27:47;2.13;;;1.07;;
22963;SDS011;11648;49.306;6.934;2023-04-03T13:30:24;2.93;;;1.00;;
22963;SDS011;11648;49.306;6.934;2023-04-03T13:32:55;2.90;;;1.10;;
22963;SDS011;11648;49.306;6.934;2023-04-03T13:38:07;4.53;;;1.30;;
22963;SDS011;11648;49.306;6.934;2023-04-03T13:40:53;3.90;;;1.07;;
22963;SDS011;11648;49.306;6.934;2023-04-03T13:43:26;2.53;;;0.73;;
22963;SDS011;11648;49.306;6.934;2023-04-03T13:45:55;3.03;;;1.00;;
22963;SDS011;11648;49.306;6.934;2023-04-03T13:48:42;3.83;;;1.10;;
22963;SDS011;11648;49.306;6.934;2023-04-03T13:58:59;2.53;;;1.17;;
22963;SDS011;11648;49.306;6.934;2023-04-03T14:01:37;3.37;;;1.10;;
22963;SDS011;11648;49.306;6.934;2023-04-03T14:04:10;3.67;;;1.30;;
22963;SDS011;11648;49.306;6.934;2023-04-03T14:06:45;3.40;;;1.23;;
22963;SDS011;11648;49.306;6.934;2023-04-03T14:09:13;4.67;;;1.67;;
22963;SDS011;11648;49.306;6.934;2023-04-03T14:11:41;3.63;;;0.90;;
22963;SDS011;11648;49.306;6.934;2023-04-03T14:14:16;2.43;;;1.00;;
22963;SDS011;11648;49.306;6.934;2023-04-03T14:16:47;5.37;;;1.60;;
22963;SDS011;11648;49.306;6.934;2023-04-03T14:19:39;4.10;;;1.20;;
22963;SDS011;11648;49.306;6.934;2023-04-03T14:22:16;2.47;;;1.20;;
22963;SDS011;11648;49.306;6.934;2023-04-03T14:24:50;5.57;;;1.73;;
22963;SDS011;11648;49.306;6.934;2023-04-03T14:27:22;2.53;;;1.10;;
22963;SDS011;11648;49.306;6.934;2023-04-03T14:29:51;4.23;;;1.20;;
22963;SDS011;11648;49.306;6.934;2023-04-03T14:32:21;3.17;;;1.13;;
22963;SDS011;11648;49.306;6.934;2023-04-03T14:34:49;3.53;;;1.23;;
22963;SDS011;11648;49.306;6.934;2023-04-03T14:37:24;2.90;;;1.20;;
22963;SDS011;11648;49.306;6.934;2023-04-03T14:39:54;3.73;;;1.17;;
22963;SDS011;11648;49.306;6.934;2023-04-03T14:42:24;3.13;;;1.00;;
22963;SDS011;11648;49.306;6.934;2023-04-03T14:44:57;3.63;;;1.03;;
22963;SDS011;11648;49.306;6.934;2023-04-03T14:47:25;2.23;;;0.90;;
22963;SDS011;11648;49.306;6.934;2023-04-03T14:49:58;2.97;;;0.97;;
22963;SDS011;11648;49.306;6.934;2023-04-03T14:52:29;4.07;;;1.40;;
22963;SDS011;11648;49.306;6.934;2023-04-03T14:54:58;4.77;;;1.57;;
22963;SDS011;11648;49.306;6.934;2023-04-03T14:57:27;3.53;;;1.20;;
22963;SDS011;11648;49.306;6.934;2023-04-03T14:59:55;3.00;;;1.37;;
22963;SDS011;11648;49.306;6.934;2023-04-03T15:04:52;2.93;;;1.10;;
22963;SDS011;11648;49.306;6.934;2023-04-03T15:07:20;3.00;;;1.07;;
22963;SDS011;11648;49.306;6.934;2023-04-03T15:09:47;3.93;;;1.23;;
22963;SDS011;11648;49.306;6.934;2023-04-03T15:12:14;3.00;;;1.17;;
22963;SDS011;11648;49.306;6.934;2023-04-03T15:14:41;3.40;;;1.13;;
22963;SDS011;11648;49.306;6.934;2023-04-03T15:17:19;3.93;;;1.23;;
22963;SDS011;11648;49.306;6.934;2023-04-03T15:19:48;4.17;;;1.47;;
22963;SDS011;11648;49.306;6.934;2023-04-03T15:22:17;5.27;;;1.33;;
22963;SDS011;11648;49.306;6.934;2023-04-03T15:24:45;2.93;;;1.20;;
22963;SDS011;11648;49.306;6.934;2023-04-03T15:27:12;3.13;;;1.20;;
22963;SDS011;11648;49.306;6.934;2023-04-03T15:29:40;3.97;;;1.20;;
22963;SDS011;11648;49.306;6.934;2023-04-03T15:32:08;3.63;;;1.23;;
22963;SDS011;11648;49.306;6.934;2023-04-03T15:34:36;3.53;;;1.10;;
22963;SDS011;11648;49.306;6.934;2023-04-03T15:37:04;3.83;;;1.33;;
22963;SDS011;11648;49.306;6.934;2023-04-03T15:39:31;3.53;;;1.30;;
22963;SDS011;11648;49.306;6.934;2023-04-03T15:41:58;7.03;;;1.80;;
22963;SDS011;11648;49.306;6.934;2023-04-03T15:44:33;3.60;;;1.63;;
22963;SDS011;11648;49.306;6.934;2023-04-03T15:47:01;2.60;;;1.30;;
22963;SDS011;11648;49.306;6.934;2023-04-03T15:49:29;5.57;;;1.50;;
22963;SDS011;11648;49.306;6.934;2023-04-03T15:51:57;4.57;;;2.00;;
22963;SDS011;11648;49.306;6.934;2023-04-03T15:54:24;4.83;;;1.53;;
22963;SDS011;11648;49.306;6.934;2023-04-03T15:56:52;3.73;;;1.37;;
22963;SDS011;11648;49.306;6.934;2023-04-03T15:59:19;3.23;;;1.17;;
22963;SDS011;11648;49.306;6.934;2023-04-03T16:01:46;3.00;;;1.53;;
22963;SDS011;11648;49.306;6.934;2023-04-03T16:04:13;3.30;;;1.33;;
22963;SDS011;11648;49.306;6.934;2023-04-03T16:06:41;2.93;;;1.73;;
22963;SDS011;11648;49.306;6.934;2023-04-03T16:09:08;5.13;;;2.00;;
22963;SDS011;11648;49.306;6.934;2023-04-03T16:11:36;5.83;;;2.10;;
22963;SDS011;11648;49.306;6.934;2023-04-03T16:14:08;3.27;;;1.23;;
22963;SDS011;11648;49.306;6.934;2023-04-03T16:16:36;4.10;;;1.40;;
22963;SDS011;11648;49.306;6.934;2023-04-03T16:19:03;5.17;;;1.70;;
22963;SDS011;11648;49.306;6.934;2023-04-03T16:21:31;3.53;;;1.63;;
22963;SDS011;11648;49.306;6.934;2023-04-03T16:23:58;3.93;;;1.30;;
22963;SDS011;11648;49.306;6.934;2023-04-03T16:26:26;3.20;;;1.37;;
22963;SDS011;11648;49.306;6.934;2023-04-03T16:28:53;2.67;;;1.50;;
22963;SDS011;11648;49.306;6.934;2023-04-03T16:31:20;3.90;;;1.67;;
22963;SDS011;11648;49.306;6.934;2023-04-03T16:33:49;5.20;;;1.40;;
22963;SDS011;11648;49.306;6.934;2023-04-03T16:36:16;3.83;;;2.27;;
22963;SDS011;11648;49.306;6.934;2023-04-03T16:38:43;3.60;;;1.50;;
22963;SDS011;11648;49.306;6.934;2023-04-03T16:41:09;2.90;;;1.50;;
22963;SDS011;11648;49.306;6.934;2023-04-03T16:43:36;4.80;;;1.50;;
22963;SDS011;11648;49.306;6.934;2023-04-03T16:46:03;3.33;;;1.30;;
22963;SDS011;11648;49.306;6.934;2023-04-03T16:48:30;3.00;;;1.13;;
22963;SDS011;11648;49.306;6.934;2023-04-03T16:50:57;2.90;;;1.50;;
22963;SDS011;11648;49.306;6.934;2023-04-03T16:53:24;3.10;;;1.20;;
22963;SDS011;11648;49.306;6.934;2023-04-03T16:55:52;3.47;;;1.33;;
22963;SDS011;11648;49.306;6.934;2023-04-03T16:58:19;4.23;;;1.60;;
22963;SDS011;11648;49.306;6.934;2023-04-03T17:00:49;4.10;;;1.67;;
22963;SDS011;11648;49.306;6.934;2023-04-03T17:03:16;3.90;;;1.30;;
22963;SDS011;11648;49.306;6.934;2023-04-03T17:05:46;4.97;;;1.43;;
22963;SDS011;11648;49.306;6.934;2023-04-03T17:08:13;2.73;;;1.40;;
22963;SDS011;11648;49.306;6.934;2023-04-03T17:10:40;3.20;;;1.23;;
22963;SDS011;11648;49.306;6.934;2023-04-03T17:13:07;4.37;;;1.60;;
22963;SDS011;11648;49.306;6.934;2023-04-03T17:15:34;3.40;;;1.33;;
22963;SDS011;11648;49.306;6.934;2023-04-03T17:18:01;4.73;;;1.60;;